Time;durP1;ratioP1;P1;durP2;ratioP2;P2;SDS_P1;SDS_P2;PMS_P1;PMS_P2;Temp;Humidity;BMP_temperature;BMP_pressure;BME280_temperature;BME280_humidity;BME280_pressure;Samples;Min_cycle;Max_cycle;Signal;HPM_P1;HPM_P2
2023/07/02 00:02:22;;;;;;;3.17;2.10;;;;;;;;;;5034704;28;20030;-74
2023/07/02 00:04:48;;;;;;;3.53;1.60;;;;;;;;;;5034746;28;20021;-75
2023/07/02 00:07:14;;;;;;;4.57;1.55;;;;;;;;;;5034591;28;20357;-75
2023/07/02 00:09:41;;;;;;;2.05;1.80;;;;;;;;;;5034685;28;20022;-75
2023/07/02 00:12:07;;;;;;;4.25;1.80;;;;;;;;;;5034749;28;20025;-74
2023/07/02 00:14:33;;;;;;;5.13;1.67;;;;;;;;;;5034408;28;20029;-74
2023/07/02 00:16:59;;;;;;;3.08;1.67;;;;;;;;;;5034159;28;20030;-72
2023/07/02 00:19:25;;;;;;;3.60;1.67;;;;;;;;;;5033802;28;20040;-75
2023/07/02 00:21:53;;;;;;;2.40;1.70;;;;;;;;;;5034240;28;20021;-74
2023/07/02 00:24:19;;;;;;;2.40;1.63;;;;;;;;;;5034569;28;20499;-74
2023/07/02 00:26:45;;;;;;;5.15;1.58;;;;;;;;;;5034545;28;20025;-74
2023/07/02 00:29:11;;;;;;;3.08;1.55;;;;;;;;;;5033620;28;20052;-74
2023/07/02 00:31:37;;;;;;;2.22;1.38;;;;;;;;;;5034142;28;20036;-74
2023/07/02 00:34:04;;;;;;;2.15;1.30;;;;;;;;;;5034292;28;20466;-75
2023/07/02 00:36:30;;;;;;;1.95;1.27;;;;;;;;;;5034002;28;20103;-74
2023/07/02 00:38:56;;;;;;;1.52;1.20;;;;;;;;;;5033263;28;20083;-74
2023/07/02 00:41:23;;;;;;;1.98;1.70;;;;;;;;;;5034281;28;20025;-75
2023/07/02 00:43:49;;;;;;;1.10;1.00;;;;;;;;;;5016207;28;20021;-75
2023/07/02 00:46:17;;;;;;;2.15;1.30;;;;;;;;;;5016128;28;20502;-75
2023/07/02 00:48:44;;;;;;;1.52;1.10;;;;;;;;;;5033187;28;20017;-74
2023/07/02 00:51:11;;;;;;;2.63;1.30;;;;;;;;;;5033924;28;20156;-75
2023/07/02 00:53:37;;;;;;;2.25;1.50;;;;;;;;;;5033901;28;20033;-75
2023/07/02 00:56:03;;;;;;;4.05;1.80;;;;;;;;;;5033696;28;20114;-76
2023/07/02 00:58:29;;;;;;;11.48;1.25;;;;;;;;;;5033095;28;20399;-75
2023/07/02 01:00:56;;;;;;;2.50;1.35;;;;;;;;;;5033612;28;20612;-75
2023/07/02 01:03:22;;;;;;;2.50;1.27;;;;;;;;;;5033065;28;20487;-74
2023/07/02 01:05:48;;;;;;;1.10;1.00;;;;;;;;;;5033650;28;20549;-75
2023/07/02 01:08:14;;;;;;;1.50;1.27;;;;;;;;;;5032931;28;20025;-75
2023/07/02 01:10:42;;;;;;;1.20;0.80;;;;;;;;;;5033551;28;20036;-75
2023/07/02 01:13:11;;;;;;;23.52;1.98;;;;;;;;;;5033495;28;20395;-75
2023/07/02 01:15:37;;;;;;;3.70;1.42;;;;;;;;;;5033296;28;20049;-75
2023/07/02 01:18:04;;;;;;;1.60;1.05;;;;;;;;;;5032238;28;20026;-75
2023/07/02 01:20:31;;;;;;;2.85;1.40;;;;;;;;;;5033460;28;20430;-75
2023/07/02 01:22:57;;;;;;;2.55;1.38;;;;;;;;;;5033213;28;20025;-76
2023/07/02 01:25:24;;;;;;;1.42;1.30;;;;;;;;;;5033337;28;20113;-76
2023/07/02 01:27:51;;;;;;;1.77;1.23;;;;;;;;;;5014658;28;20049;-75
2023/07/02 01:30:17;;;;;;;1.40;1.10;;;;;;;;;;5033043;28;20026;-75
2023/07/02 01:32:43;;;;;;;1.65;1.33;;;;;;;;;;5033114;28;20025;-76
2023/07/02 01:35:09;;;;;;;1.98;1.30;;;;;;;;;;5015299;28;20444;-75
2023/07/02 01:37:37;;;;;;;3.35;1.23;;;;;;;;;;5032256;28;20408;-75
2023/07/02 01:40:06;;;;;;;2.13;1.15;;;;;;;;;;5032861;28;20583;-74
2023/07/02 01:42:33;;;;;;;1.17;1.08;;;;;;;;;;5032776;28;20025;-73
2023/07/02 01:44:59;;;;;;;1.73;1.38;;;;;;;;;;5015103;28;20082;-74
2023/07/02 01:47:25;;;;;;;3.95;1.13;;;;;;;;;;5031924;28;20049;-75
2023/07/02 01:49:51;;;;;;;3.17;1.42;;;;;;;;;;5032917;28;20029;-75
2023/07/02 01:52:17;;;;;;;2.50;1.30;;;;;;;;;;5032842;28;20032;-75
2023/07/02 01:54:44;;;;;;;1.15;1.05;;;;;;;;;;5032620;28;20087;-75
2023/07/02 01:57:10;;;;;;;1.20;1.10;;;;;;;;;;5014058;28;20017;-75
2023/07/02 01:59:36;;;;;;;1.70;1.20;;;;;;;;;;5032224;28;20116;-74
2023/07/02 02:02:02;;;;;;;1.92;1.30;;;;;;;;;;5032790;28;20053;-75
2023/07/02 02:04:28;;;;;;;1.95;0.95;;;;;;;;;;5032257;28;20026;-74
2023/07/02 02:06:55;;;;;;;1.70;1.30;;;;;;;;;;5032476;28;20030;-75
2023/07/02 02:09:21;;;;;;;1.50;1.40;;;;;;;;;;5031837;28;20075;-75
2023/07/02 02:11:52;;;;;;;1.45;1.27;;;;;;;;;;5014558;28;20026;-75
2023/07/02 02:14:18;;;;;;;3.30;1.07;;;;;;;;;;5014271;28;20029;-75
2023/07/02 02:16:45;;;;;;;1.77;1.30;;;;;;;;;;5031477;28;20685;-75
2023/07/02 02:19:12;;;;;;;3.90;1.38;;;;;;;;;;5054143;22;20053;-76
2023/07/02 02:21:38;;;;;;;1.52;1.42;;;;;;;;;;5032086;28;20029;-77
2023/07/02 02:24:04;;;;;;;4.00;1.33;;;;;;;;;;5031829;28;20037;-77
2023/07/02 02:26:30;;;;;;;2.70;1.48;;;;;;;;;;5032026;28;20369;-77
2023/07/02 02:28:57;;;;;;;4.55;1.10;;;;;;;;;;5030839;28;20443;-76
2023/07/02 02:31:23;;;;;;;1.77;1.25;;;;;;;;;;5032131;28;20029;-77
2023/07/02 02:33:49;;;;;;;1.92;1.73;;;;;;;;;;5032122;28;20109;-77
2023/07/02 02:36:15;;;;;;;2.17;1.13;;;;;;;;;;5032436;28;20021;-77
2023/07/02 02:38:41;;;;;;;1.40;1.30;;;;;;;;;;5031884;28;20509;-78
2023/07/02 02:41:08;;;;;;;2.75;1.48;;;;;;;;;;5023947;28;20120;-78
2023/07/02 02:43:34;;;;;;;3.83;1.58;;;;;;;;;;5039488;28;20039;-78
2023/07/02 02:46:00;;;;;;;2.33;1.60;;;;;;;;;;5038256;28;20029;-77
2023/07/02 02:48:26;;;;;;;3.63;1.52;;;;;;;;;;5031278;28;20022;-77
2023/07/02 02:50:52;;;;;;;1.50;1.33;;;;;;;;;;5031761;28;20048;-77
2023/07/02 02:53:18;;;;;;;1.58;1.45;;;;;;;;;;5029129;28;20021;-76
2023/07/02 02:55:44;;;;;;;1.52;1.10;;;;;;;;;;5022884;28;20033;-76
2023/07/02 02:58:10;;;;;;;2.70;1.80;;;;;;;;;;5030836;28;20542;-76
2023/07/02 03:00:38;;;;;;;4.28;1.70;;;;;;;;;;5023406;28;20034;-76
2023/07/02 03:03:04;;;;;;;1.65;1.10;;;;;;;;;;5031336;28;20021;-76
2023/07/02 03:05:30;;;;;;;1.50;1.40;;;;;;;;;;5031418;28;20041;-76
2023/07/02 03:07:56;;;;;;;1.63;1.00;;;;;;;;;;5030914;28;20026;-76
2023/07/02 03:10:22;;;;;;;1.23;1.10;;;;;;;;;;5031223;28;20104;-75
2023/07/02 03:12:48;;;;;;;3.42;1.65;;;;;;;;;;5031335;28;20450;-76
2023/07/02 03:15:14;;;;;;;1.17;1.08;;;;;;;;;;5031233;28;20029;-75
2023/07/02 03:17:40;;;;;;;1.20;1.10;;;;;;;;;;5031044;28;20030;-76
2023/07/02 03:20:10;;;;;;;2.17;1.17;;;;;;;;;;5031216;28;20037;-76
2023/07/02 03:22:36;;;;;;;3.90;1.10;;;;;;;;;;5031021;28;20033;-76
2023/07/02 03:25:02;;;;;;;1.60;1.40;;;;;;;;;;5013584;28;20033;-76
2023/07/02 03:27:28;;;;;;;2.63;1.20;;;;;;;;;;5030445;28;20032;-76
2023/07/02 03:29:54;;;;;;;1.42;0.95;;;;;;;;;;5013404;28;20021;-75
2023/07/02 03:32:20;;;;;;;1.85;1.17;;;;;;;;;;5031375;28;20021;-75
2023/07/02 03:34:46;;;;;;;1.55;1.10;;;;;;;;;;5031502;28;20442;-75
2023/07/02 03:37:12;;;;;;;1.85;1.20;;;;;;;;;;5030678;28;20079;-75
2023/07/02 03:39:38;;;;;;;1.25;1.10;;;;;;;;;;5031062;28;20026;-75
2023/07/02 03:42:05;;;;;;;1.77;1.67;;;;;;;;;;5013142;28;20065;-75
2023/07/02 03:44:31;;;;;;;1.10;1.00;;;;;;;;;;5031149;28;20156;-75
2023/07/02 03:46:57;;;;;;;2.00;1.40;;;;;;;;;;5030900;28;20732;-76
2023/07/02 03:49:24;;;;;;;1.73;1.35;;;;;;;;;;5012830;28;20029;-76
2023/07/02 03:51:50;;;;;;;3.45;1.48;;;;;;;;;;5030895;28;20018;-76
2023/07/02 03:54:17;;;;;;;3.67;1.60;;;;;;;;;;5012630;28;20029;-76
2023/07/02 03:56:43;;;;;;;1.73;1.50;;;;;;;;;;5030547;28;20025;-76
2023/07/02 03:59:09;;;;;;;4.10;1.70;;;;;;;;;;5029874;28;20033;-76
2023/07/02 04:01:35;;;;;;;2.40;2.10;;;;;;;;;;5030897;28;20034;-76
2023/07/02 04:04:01;;;;;;;3.35;1.88;;;;;;;;;;5030753;28;20112;-76
2023/07/02 04:06:27;;;;;;;5.03;2.13;;;;;;;;;;5030983;28;20021;-76
2023/07/02 04:08:53;;;;;;;4.05;2.17;;;;;;;;;;5030273;28;20514;-75
2023/07/02 04:11:19;;;;;;;4.13;2.20;;;;;;;;;;5030797;28;20029;-75
2023/07/02 04:13:45;;;;;;;2.88;2.40;;;;;;;;;;5012960;28;20025;-75
2023/07/02 04:16:11;;;;;;;2.05;1.88;;;;;;;;;;5031175;28;20022;-76
2023/07/02 04:18:37;;;;;;;1.90;1.80;;;;;;;;;;5030214;28;20028;-75
2023/07/02 04:21:04;;;;;;;3.13;2.15;;;;;;;;;;5031004;28;20546;-75
2023/07/02 04:23:30;;;;;;;5.88;1.80;;;;;;;;;;5030495;28;20022;-75
2023/07/02 04:25:56;;;;;;;1.80;1.70;;;;;;;;;;5030592;28;20494;-75
2023/07/02 04:28:22;;;;;;;3.70;1.80;;;;;;;;;;5030033;28;20021;-76
2023/07/02 04:30:49;;;;;;;3.33;2.03;;;;;;;;;;5030873;28;20033;-76
2023/07/02 04:33:15;;;;;;;2.95;2.00;;;;;;;;;;5013090;28;20124;-76
2023/07/02 04:35:42;;;;;;;4.75;2.00;;;;;;;;;;5030568;28;20033;-76
2023/07/02 04:38:09;;;;;;;5.38;2.50;;;;;;;;;;5029970;28;20029;-76
2023/07/02 04:40:35;;;;;;;2.65;1.90;;;;;;;;;;5034288;28;20430;-76
2023/07/02 04:43:02;;;;;;;4.13;2.38;;;;;;;;;;5034162;28;20033;-76
2023/07/02 04:45:31;;;;;;;2.72;2.38;;;;;;;;;;5034065;28;20064;-76
2023/07/02 04:48:00;;;;;;;3.58;2.30;;;;;;;;;;5033796;28;20372;-76
2023/07/02 04:50:26;;;;;;;4.95;2.05;;;;;;;;;;5034105;28;20032;-76
2023/07/02 04:52:52;;;;;;;2.47;2.03;;;;;;;;;;5034048;28;20033;-76
2023/07/02 04:55:18;;;;;;;2.53;1.98;;;;;;;;;;5028933;28;20024;-77
2023/07/02 04:57:44;;;;;;;5.68;2.10;;;;;;;;;;5033287;28;20043;-76
2023/07/02 05:00:12;;;;;;;2.22;1.90;;;;;;;;;;5008091;28;20373;-76
2023/07/02 05:02:38;;;;;;;3.28;2.15;;;;;;;;;;5033687;28;20026;-76
2023/07/02 05:05:04;;;;;;;3.78;1.80;;;;;;;;;;5033695;28;20025;-77
2023/07/02 05:07:30;;;;;;;3.58;2.25;;;;;;;;;;5032163;28;20033;-76
2023/07/02 05:09:56;;;;;;;4.50;2.08;;;;;;;;;;5012314;28;20030;-76
2023/07/02 05:12:22;;;;;;;2.40;2.00;;;;;;;;;;5010659;28;20564;-76
2023/07/02 05:14:48;;;;;;;3.35;2.20;;;;;;;;;;5012364;28;20018;-76
2023/07/02 05:17:14;;;;;;;5.72;2.63;;;;;;;;;;5012147;28;20048;-76
2023/07/02 05:19:40;;;;;;;6.35;2.20;;;;;;;;;;5011296;28;20045;-77
2023/07/02 05:22:06;;;;;;;2.20;2.00;;;;;;;;;;5012599;28;20053;-76
2023/07/02 05:24:32;;;;;;;3.70;1.77;;;;;;;;;;5013265;28;20037;-76
2023/07/02 05:26:58;;;;;;;3.95;2.28;;;;;;;;;;5013565;28;20026;-76
2023/07/02 05:29:24;;;;;;;5.60;1.95;;;;;;;;;;5013193;28;20022;-75
2023/07/02 05:31:50;;;;;;;5.10;1.90;;;;;;;;;;5013602;28;20026;-76
2023/07/02 05:34:16;;;;;;;3.20;2.08;;;;;;;;;;5013357;28;20108;-75
2023/07/02 05:36:43;;;;;;;4.88;2.17;;;;;;;;;;5013116;28;20129;-76
2023/07/02 05:39:09;;;;;;;3.40;2.05;;;;;;;;;;5012614;28;20018;-76
2023/07/02 05:41:35;;;;;;;3.47;1.90;;;;;;;;;;5012104;28;20052;-76
2023/07/02 05:44:01;;;;;;;4.70;1.85;;;;;;;;;;5013088;28;20036;-74
2023/07/02 05:46:27;;;;;;;2.20;1.98;;;;;;;;;;5012959;28;20036;-75
2023/07/02 05:48:56;;;;;;;4.07;1.67;;;;;;;;;;5012661;28;20021;-75
2023/07/02 05:51:22;;;;;;;7.70;2.40;;;;;;;;;;5012104;28;20105;-74
2023/07/02 05:53:48;;;;;;;3.47;1.67;;;;;;;;;;5013212;28;20084;-75
2023/07/02 05:56:14;;;;;;;7.15;1.92;;;;;;;;;;5013136;28;20040;-75
2023/07/02 05:58:40;;;;;;;2.85;1.30;;;;;;;;;;5012416;28;20057;-75
2023/07/02 06:01:06;;;;;;;2.38;1.60;;;;;;;;;;5013039;28;20030;-76
2023/07/02 06:03:32;;;;;;;5.70;1.90;;;;;;;;;;5012811;28;20544;-76
2023/07/02 06:05:59;;;;;;;5.13;1.60;;;;;;;;;;5013715;28;20481;-76
2023/07/02 06:08:25;;;;;;;3.53;1.80;;;;;;;;;;5015294;28;20029;-76
2023/07/02 06:10:51;;;;;;;3.97;1.52;;;;;;;;;;5016415;28;20042;-76
2023/07/02 06:13:17;;;;;;;5.28;1.80;;;;;;;;;;5014705;28;20026;-76
2023/07/02 06:15:43;;;;;;;3.65;1.90;;;;;;;;;;5011581;28;20040;-75
2023/07/02 06:18:09;;;;;;;4.07;1.75;;;;;;;;;;5011860;28;20102;-75
2023/07/02 06:20:35;;;;;;;2.90;2.13;;;;;;;;;;5012420;28;20030;-75
2023/07/02 06:23:01;;;;;;;7.90;1.88;;;;;;;;;;5012458;28;20076;-75
2023/07/02 06:25:27;;;;;;;2.08;1.88;;;;;;;;;;5011956;28;20391;-75
2023/07/02 06:27:55;;;;;;;2.08;1.55;;;;;;;;;;5011165;28;20026;-75
2023/07/02 06:30:22;;;;;;;3.70;1.90;;;;;;;;;;5011581;28;20026;-75
2023/07/02 06:32:48;;;;;;;3.83;1.95;;;;;;;;;;5011398;28;20026;-75
2023/07/02 06:35:14;;;;;;;3.08;2.20;;;;;;;;;;5011386;28;20029;-75
2023/07/02 06:37:40;;;;;;;2.40;1.38;;;;;;;;;;5010570;28;20452;-75
2023/07/02 06:40:07;;;;;;;3.00;1.70;;;;;;;;;;5010562;28;20129;-75
2023/07/02 06:42:33;;;;;;;3.30;2.40;;;;;;;;;;5010594;28;20534;-75
2023/07/02 06:44:59;;;;;;;2.90;1.67;;;;;;;;;;5012137;28;20174;-75
2023/07/02 06:47:25;;;;;;;2.75;2.08;;;;;;;;;;5011498;28;20026;-75
2023/07/02 06:49:53;;;;;;;2.40;2.17;;;;;;;;;;5012084;28;20026;-76
2023/07/02 06:52:19;;;;;;;2.78;1.75;;;;;;;;;;5010722;28;20527;-76
2023/07/02 06:54:45;;;;;;;3.83;2.10;;;;;;;;;;5012025;28;20032;-76
2023/07/02 06:57:11;;;;;;;3.67;1.88;;;;;;;;;;5011664;28;20033;-76
2023/07/02 06:59:37;;;;;;;2.05;1.65;;;;;;;;;;5011784;28;20424;-78
2023/07/02 07:02:03;;;;;;;2.55;1.83;;;;;;;;;;5011810;28;20022;-78
2023/07/02 07:04:29;;;;;;;5.30;1.52;;;;;;;;;;5010552;28;20022;-78
2023/07/02 07:06:55;;;;;;;3.40;1.60;;;;;;;;;;5011978;28;20026;-78
2023/07/02 07:09:21;;;;;;;4.32;1.80;;;;;;;;;;5009782;28;20026;-78
2023/07/02 07:11:48;;;;;;;3.95;1.70;;;;;;;;;;5012034;28;20022;-78
2023/07/02 07:14:14;;;;;;;2.05;1.70;;;;;;;;;;5011940;28;20030;-78
2023/07/02 07:16:40;;;;;;;5.72;1.67;;;;;;;;;;5011795;28;20030;-78
2023/07/02 07:19:07;;;;;;;4.00;1.70;;;;;;;;;;5011022;28;20492;-76
2023/07/02 07:21:33;;;;;;;4.40;1.48;;;;;;;;;;5010462;28;20057;-76
2023/07/02 07:23:59;;;;;;;2.70;1.73;;;;;;;;;;5011586;28;20070;-77
2023/07/02 07:26:28;;;;;;;2.75;1.90;;;;;;;;;;5011917;28;20065;-77
2023/07/02 07:28:55;;;;;;;1.67;1.50;;;;;;;;;;5010609;28;20097;-77
2023/07/02 07:31:22;;;;;;;2.88;1.60;;;;;;;;;;5011535;28;20018;-77
2023/07/02 07:33:48;;;;;;;4.00;2.00;;;;;;;;;;5011868;28;20113;-75
2023/07/02 07:36:14;;;;;;;2.53;2.08;;;;;;;;;;5010958;28;20026;-77
2023/07/02 07:38:40;;;;;;;1.67;1.58;;;;;;;;;;5009945;28;20036;-77
2023/07/02 07:41:06;;;;;;;3.38;2.08;;;;;;;;;;5011634;28;20476;-78
2023/07/02 07:43:34;;;;;;;2.25;1.45;;;;;;;;;;5011676;28;20026;-77
2023/07/02 07:46:04;;;;;;;2.95;1.65;;;;;;;;;;5011516;28;20105;-77
2023/07/02 07:48:33;;;;;;;2.22;1.40;;;;;;;;;;5010679;28;20558;-77
2023/07/02 07:50:59;;;;;;;7.43;1.40;;;;;;;;;;5011584;28;20084;-76
2023/07/02 07:53:25;;;;;;;2.15;1.00;;;;;;;;;;5011574;28;20480;-76
2023/07/02 07:55:57;;;;;;;1.73;1.25;;;;;;;;;;5011779;28;20022;-78
2023/07/02 07:58:26;;;;;;;1.92;1.38;;;;;;;;;;5009575;28;20026;-78
2023/07/02 08:00:52;;;;;;;1.90;1.10;;;;;;;;;;5009867;28;20030;-77
2023/07/02 08:03:18;;;;;;;3.78;1.30;;;;;;;;;;5011390;28;20022;-78
2023/07/02 08:05:44;;;;;;;4.10;1.20;;;;;;;;;;5010872;28;20026;-78
2023/07/02 08:08:10;;;;;;;1.90;1.42;;;;;;;;;;5013268;28;20080;-80
2023/07/02 08:10:38;;;;;;;2.35;1.23;;;;;;;;;;5014060;28;20037;-78
2023/07/02 08:13:18;;;;;;;;;;;;;;;;;;;;;
2023/07/02 08:15:51;;;;;;;2.53;1.33;;;;;;;;;;5017908;28;20112;-80
2023/07/02 08:18:20;;;;;;;2.45;1.38;;;;;;;;;;5015120;28;20265;-76
2023/07/02 08:21:07;;;;;;;3.42;1.20;;;;;;;;;;5028704;22;20101;-78
2023/07/02 08:23:33;;;;;;;3.05;1.20;;;;;;;;;;4999036;28;20034;-80
2023/07/02 08:26:00;;;;;;;4.50;1.25;;;;;;;;;;4995960;28;20092;-79
2023/07/02 08:28:26;;;;;;;5.82;1.90;;;;;;;;;;4997093;28;20109;-77
2023/07/02 08:30:57;;;;;;;1.77;1.58;;;;;;;;;;4997735;28;20081;-80
2023/07/02 08:33:25;;;;;;;4.07;1.35;;;;;;;;;;5002255;28;20048;-77
2023/07/02 08:35:51;;;;;;;1.35;1.23;;;;;;;;;;5007189;28;20090;-79
2023/07/02 08:38:40;;;;;;;1.98;1.25;;;;;;;;;;5002396;28;20034;-78
2023/07/02 08:41:06;;;;;;;2.45;1.55;;;;;;;;;;4998366;28;20043;-78
2023/07/02 08:44:07;;;;;;;3.53;1.50;;;;;;;;;;4998169;28;20519;-80
2023/07/02 08:46:53;;;;;;;3.60;1.50;;;;;;;;;;4995512;28;20084;-78
2023/07/02 08:49:30;;;;;;;2.30;1.50;;;;;;;;;;4998237;28;20038;-78
2023/07/02 08:52:02;;;;;;;1.70;1.10;;;;;;;;;;4998122;28;20532;-78
2023/07/02 08:54:59;;;;;;;2.58;1.55;;;;;;;;;;4997215;28;20093;-78
2023/07/02 08:57:42;;;;;;;2.65;1.70;;;;;;;;;;4978613;28;20440;-78
2023/07/02 09:00:38;;;;;;;3.10;1.50;;;;;;;;;;4998252;28;20023;-78
2023/07/02 09:03:22;;;;;;;2.05;1.30;;;;;;;;;;4989155;28;20256;-79
2023/07/02 09:06:13;;;;;;;1.42;1.33;;;;;;;;;;4999274;28;20023;-78
2023/07/02 09:14:29;;;;;;;3.22;1.40;;;;;;;;;;4928399;29;20034;-78
2023/07/02 09:17:22;;;;;;;2.15;1.30;;;;;;;;;;4925108;29;20040;-78
2023/07/02 09:20:19;;;;;;;2.15;1.20;;;;;;;;;;4910827;29;20052;-79
2023/07/02 09:22:54;;;;;;;3.65;1.50;;;;;;;;;;4912565;29;20057;-79
2023/07/02 09:25:37;;;;;;;1.73;1.40;;;;;;;;;;4927465;28;20039;-77
2023/07/02 09:28:19;;;;;;;2.88;1.30;;;;;;;;;;4977130;28;20624;-77
2023/07/02 09:31:01;;;;;;;2.28;1.25;;;;;;;;;;4960553;28;20034;-77
2023/07/02 09:36:25;;;;;;;2.80;1.15;;;;;;;;;;4991846;28;20049;-80
2023/07/02 09:38:51;;;;;;;2.15;1.20;;;;;;;;;;4994853;28;20045;-77
2023/07/02 09:41:39;;;;;;;1.13;1.02;;;;;;;;;;4994123;28;20471;-77
2023/07/02 09:44:12;;;;;;;1.45;1.30;;;;;;;;;;4994536;28;20018;-77
2023/07/02 09:46:51;;;;;;;2.95;1.30;;;;;;;;;;4993605;28;20485;-78
2023/07/02 09:49:22;;;;;;;2.35;1.30;;;;;;;;;;4993799;28;20030;-77
2023/07/02 09:51:48;;;;;;;1.45;1.20;;;;;;;;;;4994115;28;20053;-77
2023/07/02 09:54:24;;;;;;;;;;;;;;;;;;;;;
2023/07/02 09:56:53;;;;;;;1.60;1.20;;;;;;;;;;4991804;28;20035;-77
2023/07/02 09:59:22;;;;;;;2.13;1.15;;;;;;;;;;5006070;28;20027;-77
2023/07/02 10:01:51;;;;;;;3.72;1.42;;;;;;;;;;4998319;28;20030;-77
2023/07/02 10:04:31;;;;;;;5.55;1.35;;;;;;;;;;4976647;28;20043;-77
2023/07/02 10:07:00;;;;;;;4.20;1.30;;;;;;;;;;4979213;28;20046;-77
2023/07/02 10:09:54;;;;;;;2.83;1.15;;;;;;;;;;4977094;28;20436;-78
2023/07/02 10:12:29;;;;;;;1.50;1.40;;;;;;;;;;4971228;28;20038;-77
2023/07/02 10:14:57;;;;;;;1.98;1.10;;;;;;;;;;4975296;28;20039;-77
2023/07/02 10:17:37;;;;;;;2.90;1.60;;;;;;;;;;4972439;28;20047;-77
2023/07/02 10:20:27;;;;;;;2.80;1.48;;;;;;;;;;4975909;28;20030;-77
2023/07/02 10:22:54;;;;;;;1.37;1.27;;;;;;;;;;4978977;28;20055;-77
2023/07/02 10:25:29;;;;;;;2.42;1.52;;;;;;;;;;4974791;28;20137;-77
2023/07/02 10:27:58;;;;;;;1.48;1.38;;;;;;;;;;4975025;28;20098;-77
2023/07/02 10:30:40;;;;;;;1.98;1.13;;;;;;;;;;4974695;28;20468;-77
2023/07/02 10:33:19;;;;;;;4.68;1.63;;;;;;;;;;4984974;28;20479;-77
2023/07/02 10:35:51;;;;;;;2.42;1.70;;;;;;;;;;4992553;28;20027;-77
2023/07/02 10:38:20;;;;;;;5.55;1.25;;;;;;;;;;4976685;28;20039;-77
2023/07/02 10:40:46;;;;;;;1.50;1.27;;;;;;;;;;4974885;28;20027;-77
2023/07/02 10:43:15;;;;;;;1.75;1.40;;;;;;;;;;4974665;28;20027;-77
2023/07/02 10:46:11;;;;;;;3.72;1.50;;;;;;;;;;4977107;28;20018;-77
2023/07/02 10:48:40;;;;;;;3.40;1.45;;;;;;;;;;4976894;28;20540;-77
2023/07/02 10:51:15;;;;;;;15.60;2.00;;;;;;;;;;4995503;28;20088;-79
2023/07/02 10:53:47;;;;;;;2.60;1.33;;;;;;;;;;4997081;28;20088;-78
2023/07/02 10:56:22;;;;;;;4.10;1.48;;;;;;;;;;4997099;28;20030;-79
2023/07/02 10:59:13;;;;;;;4.90;2.17;;;;;;;;;;4995806;28;20030;-78
2023/07/02 11:02:06;;;;;;;;;;;;;;;;;;;;;
2023/07/02 11:07:56;;;;;;;1.75;1.20;;;;;;;;;;4922485;29;20055;-79
2023/07/02 11:10:28;;;;;;;1.42;1.23;;;;;;;;;;4905664;29;20095;-80
2023/07/02 11:13:02;;;;;;;2.63;1.50;;;;;;;;;;4922737;29;20071;-79
2023/07/02 11:16:06;;;;;;;3.60;1.35;;;;;;;;;;4921396;29;20570;-80
2023/07/02 11:18:35;;;;;;;2.97;1.65;;;;;;;;;;4954949;28;20042;-77
2023/07/02 11:21:19;;;;;;;1.63;1.38;;;;;;;;;;5002357;28;20508;-77
2023/07/02 11:23:45;;;;;;;5.47;1.70;;;;;;;;;;5000546;28;20396;-77
2023/07/02 11:26:13;;;;;;;3.00;1.70;;;;;;;;;;5006793;28;20065;-77
2023/07/02 11:29:12;;;;;;;3.83;1.98;;;;;;;;;;4998648;28;20027;-78
2023/07/02 11:31:41;;;;;;;5.22;3.17;;;;;;;;;;5004237;28;20030;-78
2023/07/02 11:34:23;;;;;;;13.57;9.95;;;;;;;;;;4986926;28;20031;-79
2023/07/02 11:36:49;;;;;;;6.22;2.67;;;;;;;;;;4979001;28;20026;-81
2023/07/02 11:39:22;;;;;;;1.92;1.30;;;;;;;;;;4992982;28;20033;-80
2023/07/02 11:41:50;;;;;;;6.75;5.88;;;;;;;;;;4977835;28;20027;-77
2023/07/02 11:44:25;;;;;;;1.73;1.17;;;;;;;;;;4975796;28;20047;-79
2023/07/02 11:47:07;;;;;;;5.57;2.63;;;;;;;;;;4993244;28;20026;-79
2023/07/02 11:49:41;;;;;;;1.88;1.23;;;;;;;;;;4981512;28;20315;-79
2023/07/02 11:52:08;;;;;;;4.70;3.38;;;;;;;;;;4980664;28;20122;-79
2023/07/02 11:54:35;;;;;;;2.40;1.42;;;;;;;;;;4979610;28;20027;-77
2023/07/02 11:57:00;;;;;;;3.05;1.80;;;;;;;;;;4986171;28;20397;-78
2023/07/02 11:59:26;;;;;;;4.10;1.50;;;;;;;;;;5001019;28;20255;-77
2023/07/02 12:01:52;;;;;;;5.47;1.55;;;;;;;;;;4998492;28;20038;-76
2023/07/02 12:04:18;;;;;;;3.58;1.52;;;;;;;;;;4994909;28;20169;-76
2023/07/02 12:06:44;;;;;;;3.65;1.50;;;;;;;;;;4994943;28;20157;-75
2023/07/02 12:09:11;;;;;;;3.22;1.40;;;;;;;;;;4999420;28;20093;-77
2023/07/02 12:11:37;;;;;;;3.33;1.65;;;;;;;;;;4999970;28;20029;-78
2023/07/02 12:14:03;;;;;;;3.00;1.58;;;;;;;;;;5003946;28;20054;-77
2023/07/02 12:16:29;;;;;;;3.90;1.85;;;;;;;;;;5003819;28;20487;-77
2023/07/02 12:18:55;;;;;;;2.42;1.60;;;;;;;;;;4984011;28;20109;-77
2023/07/02 12:21:21;;;;;;;6.35;1.88;;;;;;;;;;4984148;28;20172;-77
2023/07/02 12:23:47;;;;;;;2.45;1.70;;;;;;;;;;4984140;28;20042;-77
2023/07/02 12:26:13;;;;;;;5.13;2.28;;;;;;;;;;4977518;28;20015;-77
2023/07/02 12:28:39;;;;;;;4.85;1.85;;;;;;;;;;4975744;28;20038;-77
2023/07/02 12:31:05;;;;;;;11.63;6.95;;;;;;;;;;4974883;28;20019;-78
2023/07/02 12:33:31;;;;;;;6.38;4.30;;;;;;;;;;4974253;28;20026;-77
2023/07/02 12:35:59;;;;;;;4.57;2.63;;;;;;;;;;4976178;28;20062;-76
2023/07/02 12:38:25;;;;;;;4.68;1.70;;;;;;;;;;4974901;28;20027;-77
2023/07/02 12:40:51;;;;;;;2.53;1.92;;;;;;;;;;4976005;28;20029;-76
2023/07/02 12:43:17;;;;;;;4.68;1.70;;;;;;;;;;4977099;28;20027;-77
2023/07/02 12:45:43;;;;;;;6.07;2.05;;;;;;;;;;4978613;28;20019;-77
2023/07/02 12:48:09;;;;;;;3.33;2.40;;;;;;;;;;4978753;28;20033;-76
2023/07/02 12:50:38;;;;;;;3.20;2.40;;;;;;;;;;4975238;28;20018;-76
2023/07/02 12:53:04;;;;;;;2.67;2.30;;;;;;;;;;4975110;28;20548;-75
2023/07/02 12:55:31;;;;;;;3.63;1.73;;;;;;;;;;4977098;28;20027;-77
2023/07/02 12:57:57;;;;;;;3.97;2.20;;;;;;;;;;4975412;28;20220;-77
2023/07/02 13:00:23;;;;;;;3.83;1.92;;;;;;;;;;4975886;28;20034;-77
2023/07/02 13:02:49;;;;;;;3.40;2.00;;;;;;;;;;4974282;28;20030;-76
2023/07/02 13:05:15;;;;;;;7.75;2.30;;;;;;;;;;4975213;28;20023;-76
2023/07/02 13:07:42;;;;;;;6.30;2.85;;;;;;;;;;4975348;28;20035;-77
2023/07/02 13:10:08;;;;;;;8.60;3.90;;;;;;;;;;4974736;28;20098;-68
2023/07/02 13:12:34;;;;;;;2.92;2.13;;;;;;;;;;4974960;28;20023;-70
2023/07/02 13:15:00;;;;;;;17.63;11.98;;;;;;;;;;4984560;28;20117;-69
2023/07/02 13:17:26;;;;;;;23.95;16.30;;;;;;;;;;5001260;28;20357;-71
2023/07/02 13:19:52;;;;;;;33.25;18.58;;;;;;;;;;4997293;28;20105;-69
2023/07/02 13:22:18;;;;;;;13.73;4.82;;;;;;;;;;4992195;28;20042;-69
2023/07/02 13:24:44;;;;;;;69.35;45.63;;;;;;;;;;4993598;28;20718;-69
2023/07/02 13:27:14;;;;;;;35.58;24.33;;;;;;;;;;4992960;28;20061;-70
2023/07/02 13:29:40;;;;;;;30.70;22.00;;;;;;;;;;4993352;28;20033;-70
2023/07/02 13:32:06;;;;;;;24.65;16.05;;;;;;;;;;4982167;28;20026;-70
2023/07/02 13:34:32;;;;;;;24.30;15.10;;;;;;;;;;4974297;28;20027;-70
2023/07/02 13:36:58;;;;;;;23.05;13.52;;;;;;;;;;4973619;28;20085;-71
2023/07/02 13:39:24;;;;;;;9.95;5.28;;;;;;;;;;4973606;28;20393;-71
2023/07/02 13:41:50;;;;;;;8.35;3.83;;;;;;;;;;4973801;28;20102;-69
2023/07/02 13:44:17;;;;;;;6.95;4.22;;;;;;;;;;4973996;28;20044;-70
2023/07/02 13:46:44;;;;;;;12.80;7.30;;;;;;;;;;4973914;28;20532;-69
2023/07/02 13:49:10;;;;;;;11.48;5.88;;;;;;;;;;4984187;28;20435;-69
2023/07/02 13:51:36;;;;;;;8.10;4.38;;;;;;;;;;4993247;28;20018;-69
2023/07/02 13:54:02;;;;;;;8.95;5.32;;;;;;;;;;4993095;28;20033;-69
2023/07/02 13:56:28;;;;;;;8.50;4.57;;;;;;;;;;4993175;28;20026;-69
2023/07/02 13:58:57;;;;;;;4.93;2.72;;;;;;;;;;4992032;28;20030;-69
2023/07/02 14:01:24;;;;;;;6.00;3.65;;;;;;;;;;5008344;28;20472;-69
2023/07/02 14:03:50;;;;;;;8.45;4.28;;;;;;;;;;4992901;28;20552;-68
2023/07/02 14:06:16;;;;;;;4.18;3.22;;;;;;;;;;4992852;28;20123;-69
2023/07/02 14:08:42;;;;;;;9.95;5.43;;;;;;;;;;4992326;28;20121;-69
2023/07/02 14:11:09;;;;;;;6.95;3.25;;;;;;;;;;4991827;28;20093;-69
2023/07/02 14:13:36;;;;;;;5.68;3.28;;;;;;;;;;4992877;28;20026;-69
2023/07/02 14:16:02;;;;;;;5.28;3.70;;;;;;;;;;4993085;28;20037;-69
2023/07/02 14:18:28;;;;;;;4.80;2.67;;;;;;;;;;4992025;28;20436;-68
2023/07/02 14:20:54;;;;;;;6.43;3.05;;;;;;;;;;4993819;28;20054;-68
2023/07/02 14:23:20;;;;;;;8.85;3.00;;;;;;;;;;4979243;28;20035;-69
2023/07/02 14:25:46;;;;;;;7.47;3.05;;;;;;;;;;4972867;28;20385;-67
2023/07/02 14:28:12;;;;;;;4.95;3.00;;;;;;;;;;4972363;28;20432;-69
2023/07/02 14:30:38;;;;;;;7.03;4.05;;;;;;;;;;4973268;28;20026;-69
2023/07/02 14:33:04;;;;;;;9.07;3.15;;;;;;;;;;4973262;28;20121;-70
2023/07/02 14:35:31;;;;;;;4.80;2.58;;;;;;;;;;4972742;28;20038;-69
2023/07/02 14:37:57;;;;;;;4.05;3.13;;;;;;;;;;4971848;28;20038;-69
2023/07/02 14:40:23;;;;;;;5.57;2.80;;;;;;;;;;4972349;28;20081;-69
2023/07/02 14:42:49;;;;;;;4.65;3.00;;;;;;;;;;4972233;28;20034;-69
2023/07/02 14:45:15;;;;;;;7.80;3.80;;;;;;;;;;4972225;28;20378;-69
2023/07/02 14:47:41;;;;;;;6.10;3.53;;;;;;;;;;4971385;28;20419;-69
2023/07/02 14:50:07;;;;;;;4.13;3.13;;;;;;;;;;4971961;28;20118;-69
2023/07/02 14:52:33;;;;;;;6.50;3.80;;;;;;;;;;4972080;28;20041;-69
2023/07/02 14:55:00;;;;;;;7.75;3.60;;;;;;;;;;4972224;28;20137;-70
2023/07/02 14:57:27;;;;;;;6.00;3.00;;;;;;;;;;4971673;28;20049;-69
2023/07/02 14:59:53;;;;;;;5.40;3.88;;;;;;;;;;4972102;28;20030;-69
2023/07/02 15:02:19;;;;;;;6.20;3.95;;;;;;;;;;4971939;28;20023;-69
2023/07/02 15:04:45;;;;;;;4.13;3.50;;;;;;;;;;4972016;28;20026;-70
2023/07/02 15:07:11;;;;;;;5.70;4.00;;;;;;;;;;4971204;28;20347;-69